Time;durP1;ratioP1;P1;durP2;ratioP2;P2;SDS_P1;SDS_P2;PMS_P1;PMS_P2;Temp;Humidity;BMP_temperature;BMP_pressure;BME280_temperature;BME280_humidity;BME280_pressure;Samples;Min_cycle;Max_cycle;Signal;HPM_P1;HPM_P2
2023/08/04 00:00:10;;;;;;;6.07;1.60;;;16.90;99.90;;;;;;5095349;28;20040;-69
2023/08/04 00:02:38;;;;;;;3.83;1.83;;;16.90;99.90;;;;;;5095021;28;20051;-69
2023/08/04 00:05:05;;;;;;;2.80;1.30;;;16.80;99.90;;;;;;5094072;28;20164;-69
2023/08/04 00:07:31;;;;;;;4.07;1.60;;;16.80;99.90;;;;;;5093965;28;20101;-69
2023/08/04 00:09:57;;;;;;;5.37;1.53;;;16.80;99.90;;;;;;5093934;28;20040;-69
2023/08/04 00:12:23;;;;;;;6.43;1.90;;;16.80;99.90;;;;;;5094431;28;20149;-69
2023/08/04 00:14:49;;;;;;;7.83;1.70;;;16.80;99.90;;;;;;5094438;28;20590;-69
2023/08/04 00:17:15;;;;;;;4.77;1.53;;;16.80;99.90;;;;;;5095101;28;20127;-68
2023/08/04 00:19:42;;;;;;;5.43;1.80;;;16.80;99.90;;;;;;5093426;28;20044;-69
2023/08/04 00:22:08;;;;;;;4.50;1.60;;;16.80;99.90;;;;;;5094889;28;20048;-69
2023/08/04 00:24:34;;;;;;;2.87;1.43;;;16.80;99.90;;;;;;5093742;28;20040;-69
2023/08/04 00:27:00;;;;;;;6.00;1.77;;;16.80;99.90;;;;;;5094864;28;20093;-69
2023/08/04 00:29:27;;;;;;;3.97;1.33;;;16.80;99.90;;;;;;5094462;28;20040;-69
2023/08/04 00:31:53;;;;;;;3.10;1.30;;;16.80;99.90;;;;;;5093846;28;20097;-69
2023/08/04 00:34:18;;;;;;;4.83;1.60;;;16.70;99.90;;;;;;5094708;28;20051;-69
2023/08/04 00:36:45;;;;;;;5.00;1.67;;;16.70;99.90;;;;;;5093404;28;20056;-69
2023/08/04 00:39:11;;;;;;;5.00;2.00;;;16.70;99.90;;;;;;5094680;28;20044;-69
2023/08/04 00:41:37;;;;;;;4.87;1.50;;;16.70;99.90;;;;;;5094204;28;20105;-69
2023/08/04 00:44:03;;;;;;;4.70;1.70;;;16.70;99.90;;;;;;5094622;28;20044;-69
2023/08/04 00:46:29;;;;;;;5.67;1.70;;;16.70;99.90;;;;;;5094136;28;20052;-69
2023/08/04 00:48:57;;;;;;;4.67;1.50;;;16.70;99.90;;;;;;5094384;28;20040;-69
2023/08/04 00:51:23;;;;;;;8.83;1.70;;;16.70;99.90;;;;;;5094329;28;20129;-69
2023/08/04 00:53:49;;;;;;;8.73;1.73;;;16.60;99.90;;;;;;5093967;28;20480;-69
2023/08/04 00:56:15;;;;;;;6.70;1.70;;;16.60;99.90;;;;;;5094259;28;20097;-69
2023/08/04 00:58:41;;;;;;;8.53;1.90;;;16.60;99.90;;;;;;5094033;28;20044;-69
2023/08/04 01:01:06;;;;;;;7.73;1.90;;;16.70;99.90;;;;;;5094195;28;20476;-69
2023/08/04 01:03:33;;;;;;;7.50;1.80;;;16.70;99.90;;;;;;5093783;28;20058;-69
2023/08/04 01:06:21;;;;;;;6.93;1.90;;;16.70;99.90;;;;;;5094302;28;20058;-69
2023/08/04 01:08:57;;;;;;;6.77;2.07;;;16.70;99.90;;;;;;5093758;28;20341;-69
2023/08/04 01:11:32;;;;;;;5.10;1.87;;;16.70;99.90;;;;;;5093715;28;20062;-69
2023/08/04 01:13:58;;;;;;;;;;;16.70;99.90;;;;;;5094330;28;20135;-69
2023/08/04 01:16:24;;;;;;;7.73;1.83;;;16.70;99.90;;;;;;5093904;28;19923;-69
2023/08/04 01:18:50;;;;;;;5.00;1.70;;;16.70;99.90;;;;;;5092626;28;20405;-69
2023/08/04 01:21:15;;;;;;;7.63;2.20;;;16.70;99.90;;;;;;5092671;28;20178;-69
2023/08/04 01:23:41;;;;;;;4.37;1.70;;;16.70;99.90;;;;;;5093492;28;20479;-69
2023/08/04 01:26:10;;;;;;;4.03;1.53;;;16.70;99.90;;;;;;5093710;28;20054;-69
2023/08/04 01:28:37;;;;;;;4.27;1.43;;;16.70;99.90;;;;;;5075503;28;20044;-69
2023/08/04 01:31:03;;;;;;;4.47;1.37;;;16.70;99.90;;;;;;5093604;28;20048;-69
2023/08/04 01:33:30;;;;;;;4.53;1.60;;;16.70;99.90;;;;;;5093558;28;20044;-69
2023/08/04 01:35:55;;;;;;;4.97;1.83;;;16.60;99.90;;;;;;5092266;28;20063;-69
2023/08/04 01:38:21;;;;;;;5.03;1.90;;;16.70;99.90;;;;;;5093486;28;20048;-69
2023/08/04 01:40:47;;;;;;;4.33;1.53;;;16.60;99.90;;;;;;5093226;28;20044;-69
2023/08/04 01:43:12;;;;;;;5.50;1.60;;;16.70;99.90;;;;;;5093324;28;20369;-69
2023/08/04 01:45:38;;;;;;;3.07;1.67;;;16.60;99.90;;;;;;5091912;28;20063;-69
2023/08/04 01:48:04;;;;;;;8.33;1.70;;;16.60;99.90;;;;;;5092330;28;20040;-69
2023/08/04 01:50:30;;;;;;;5.60;1.30;;;16.60;99.90;;;;;;5092994;28;20135;-69
2023/08/04 01:52:55;;;;;;;3.40;1.50;;;16.60;99.90;;;;;;5091833;28;20055;-69
2023/08/04 01:55:21;;;;;;;2.77;1.17;;;16.50;99.90;;;;;;5093260;28;20066;-69
2023/08/04 01:57:47;;;;;;;4.70;1.40;;;16.60;99.90;;;;;;5092981;28;20043;-69
2023/08/04 02:00:13;;;;;;;3.17;1.70;;;16.50;99.90;;;;;;5092887;28;20062;-69
2023/08/04 02:02:39;;;;;;;3.83;1.47;;;16.60;99.90;;;;;;5092862;28;20044;-70
2023/08/04 02:05:06;;;;;;;2.33;1.60;;;16.50;99.90;;;;;;5093102;28;20047;-69
2023/08/04 02:07:32;;;;;;;4.93;1.30;;;16.50;99.90;;;;;;5093124;28;20126;-69
2023/08/04 02:09:59;;;;;;;3.40;1.20;;;16.50;99.90;;;;;;5092851;28;20047;-69
2023/08/04 02:12:25;;;;;;;3.90;1.40;;;16.50;99.90;;;;;;5093005;28;20389;-69
2023/08/04 02:14:50;;;;;;;7.57;1.90;;;16.40;99.90;;;;;;5092781;28;20367;-69
2023/08/04 02:17:17;;;;;;;5.90;1.60;;;16.40;99.90;;;;;;5091833;28;20048;-69
2023/08/04 02:19:43;;;;;;;7.87;1.53;;;16.40;99.90;;;;;;5092830;28;20044;-69
2023/08/04 02:22:09;;;;;;;4.70;1.73;;;16.30;99.90;;;;;;5092947;28;20545;-69
2023/08/04 02:24:35;;;;;;;3.03;1.20;;;16.30;99.90;;;;;;5092667;28;20053;-69
2023/08/04 02:27:01;;;;;;;3.87;1.30;;;16.30;99.90;;;;;;5092756;28;20105;-69
2023/08/04 02:29:26;;;;;;;5.67;1.70;;;16.30;99.90;;;;;;5092949;28;20476;-69
2023/08/04 02:31:52;;;;;;;3.07;1.53;;;16.30;99.90;;;;;;5092227;28;20077;-69
2023/08/04 02:34:18;;;;;;;3.93;1.27;;;16.30;99.90;;;;;;5092844;28;20048;-69
2023/08/04 02:36:43;;;;;;;4.90;1.47;;;16.20;99.90;;;;;;5074891;28;20044;-69
2023/08/04 02:39:09;;;;;;;2.63;1.20;;;16.20;99.90;;;;;;5093092;28;20040;-69
2023/08/04 02:41:35;;;;;;;3.90;1.40;;;16.20;99.90;;;;;;5093005;28;20048;-69
2023/08/04 02:44:02;;;;;;;5.13;1.33;;;16.20;99.90;;;;;;5092515;28;20098;-69
2023/08/04 02:46:28;;;;;;;3.27;1.20;;;16.30;99.90;;;;;;5092586;28;20055;-69
2023/08/04 02:48:54;;;;;;;1.90;1.20;;;16.30;99.90;;;;;;5092433;28;20131;-69
2023/08/04 02:51:19;;;;;;;6.00;2.03;;;16.20;99.90;;;;;;5092711;28;20387;-69
2023/08/04 02:53:46;;;;;;;7.17;2.13;;;16.30;99.90;;;;;;5092437;28;20040;-69
2023/08/04 02:56:14;;;;;;;5.63;1.57;;;16.30;99.90;;;;;;5096172;28;20044;-69
2023/08/04 02:58:41;;;;;;;3.57;1.63;;;16.20;99.90;;;;;;5096671;28;20171;-69
2023/08/04 03:01:07;;;;;;;6.07;1.60;;;16.20;99.90;;;;;;5095349;28;20139;-69
2023/08/04 03:03:34;;;;;;;5.23;1.53;;;16.20;99.90;;;;;;5095553;28;20135;-69
2023/08/04 03:06:01;;;;;;;4.67;1.77;;;16.20;99.90;;;;;;5096058;28;20563;-69
2023/08/04 03:08:27;;;;;;;3.60;1.53;;;16.20;99.90;;;;;;5096433;28;20059;-69
2023/08/04 03:10:54;;;;;;;3.43;1.27;;;16.20;99.90;;;;;;5096012;28;20056;-69
2023/08/04 03:13:19;;;;;;;2.20;1.33;;;16.10;99.90;;;;;;5096203;28;20476;-69
2023/08/04 03:15:45;;;;;;;5.20;1.70;;;16.20;99.90;;;;;;5094535;28;20109;-69
2023/08/04 03:18:12;;;;;;;4.23;1.40;;;16.20;99.90;;;;;;5096155;28;20044;-69
2023/08/04 03:20:40;;;;;;;4.97;1.37;;;16.20;99.90;;;;;;5096146;28;20127;-68
2023/08/04 03:23:06;;;;;;;4.33;1.20;;;16.10;99.90;;;;;;5095792;28;20052;-69
2023/08/04 03:25:33;;;;;;;4.07;1.43;;;16.20;99.90;;;;;;5096160;28;20048;-68
2023/08/04 03:27:59;;;;;;;6.90;1.80;;;16.20;99.90;;;;;;5095653;28;20075;-68
2023/08/04 03:30:25;;;;;;;4.00;1.93;;;16.20;99.90;;;;;;5095841;28;20131;-68
2023/08/04 03:32:51;;;;;;;3.67;1.40;;;16.20;99.90;;;;;;5095713;28;20098;-69
2023/08/04 03:35:16;;;;;;;3.93;1.83;;;16.20;99.90;;;;;;5095846;28;20082;-68
2023/08/04 03:37:42;;;;;;;4.77;1.63;;;16.20;99.90;;;;;;5094763;28;20040;-68
2023/08/04 03:40:09;;;;;;;9.33;2.60;;;16.20;99.90;;;;;;5095447;28;20067;-68
2023/08/04 03:42:38;;;;;;;3.70;1.70;;;16.20;99.90;;;;;;5094094;28;20044;-69
2023/08/04 03:45:06;;;;;;;3.67;1.60;;;16.30;99.90;;;;;;5095400;28;20483;-69
2023/08/04 03:47:31;;;;;;;5.23;1.97;;;16.30;99.90;;;;;;5095601;28;20048;-68
2023/08/04 03:49:57;;;;;;;5.60;1.70;;;16.30;99.90;;;;;;5094016;28;20089;-68
2023/08/04 03:52:23;;;;;;;4.33;1.70;;;16.20;99.90;;;;;;5095512;28;20500;-68
2023/08/04 03:54:48;;;;;;;5.70;1.63;;;16.30;99.90;;;;;;5095255;28;20055;-69
2023/08/04 03:57:14;;;;;;;5.73;2.13;;;16.20;99.90;;;;;;5077470;28;20127;-68
2023/08/04 03:59:40;;;;;;;6.23;1.60;;;16.20;99.90;;;;;;5095491;28;20040;-68
2023/08/04 04:02:06;;;;;;;4.77;1.90;;;16.20;99.90;;;;;;5095113;28;20123;-68
2023/08/04 04:04:32;;;;;;;3.63;1.50;;;16.20;99.90;;;;;;5095277;28;20083;-69
2023/08/04 04:06:57;;;;;;;5.53;2.13;;;16.20;99.90;;;;;;5093709;28;20126;-69
2023/08/04 04:09:23;;;;;;;3.90;1.90;;;16.20;99.90;;;;;;5095121;28;20047;-68
2023/08/04 04:11:49;;;;;;;6.30;2.37;;;16.20;99.90;;;;;;5094576;28;20134;-71
2023/08/04 04:14:14;;;;;;;6.73;2.23;;;16.20;99.90;;;;;;5095097;28;20052;-68
2023/08/04 04:16:40;;;;;;;4.97;1.90;;;16.20;99.90;;;;;;5095064;28;20131;-68
2023/08/04 04:19:06;;;;;;;6.73;2.10;;;16.20;99.90;;;;;;5094486;28;20077;-69
2023/08/04 04:21:31;;;;;;;5.47;2.10;;;16.20;99.90;;;;;;5077344;28;20054;-68
2023/08/04 04:23:57;;;;;;;7.40;2.47;;;16.20;99.90;;;;;;5076856;28;20131;-68
2023/08/04 04:26:24;;;;;;;9.23;2.40;;;16.30;99.90;;;;;;5094221;28;20036;-68
2023/08/04 04:28:49;;;;;;;8.80;2.30;;;16.30;99.90;;;;;;5094696;28;20044;-68
2023/08/04 04:31:15;;;;;;;8.07;2.33;;;16.20;99.90;;;;;;5094608;28;20118;-68
2023/08/04 04:33:41;;;;;;;5.57;2.20;;;16.30;99.90;;;;;;5094558;28;20539;-68
2023/08/04 04:36:07;;;;;;;8.30;2.63;;;16.30;99.90;;;;;;5094357;28;20046;-69
2023/08/04 04:38:32;;;;;;;8.77;2.73;;;16.30;99.90;;;;;;5093468;28;20036;-69
2023/08/04 04:41:03;;;;;;;6.63;2.30;;;16.30;99.90;;;;;;5094315;28;20495;-69
2023/08/04 04:43:29;;;;;;;5.60;2.60;;;16.30;99.90;;;;;;5094584;28;20040;-69
2023/08/04 04:45:55;;;;;;;6.50;2.70;;;16.30;99.90;;;;;;5094271;28;20130;-69
2023/08/04 04:48:23;;;;;;;5.27;2.23;;;16.30;99.90;;;;;;5094301;28;20537;-69
2023/08/04 04:50:51;;;;;;;8.60;3.20;;;16.30;99.90;;;;;;5094404;28;20050;-69
2023/08/04 04:53:17;;;;;;;6.30;2.43;;;16.40;99.90;;;;;;5093731;28;20527;-69
2023/08/04 04:55:43;;;;;;;5.43;2.70;;;16.30;99.90;;;;;;5094503;28;20334;-69
2023/08/04 04:58:08;;;;;;;5.97;2.57;;;16.40;99.90;;;;;;5093069;28;20051;-69
2023/08/04 05:00:35;;;;;;;8.40;2.40;;;16.30;99.90;;;;;;5093927;28;20043;-69
2023/08/04 05:03:06;;;;;;;5.30;2.63;;;16.40;99.90;;;;;;5093865;28;20086;-69
2023/08/04 05:05:32;;;;;;;8.13;2.87;;;16.40;99.90;;;;;;5094199;28;20048;-69
2023/08/04 05:07:58;;;;;;;6.60;2.60;;;16.40;99.90;;;;;;5093785;28;20047;-69
2023/08/04 05:10:24;;;;;;;5.97;2.90;;;16.40;99.90;;;;;;5094189;28;20048;-69
2023/08/04 05:12:50;;;;;;;5.20;2.80;;;16.50;99.90;;;;;;5092679;28;20373;-69
2023/08/04 05:15:16;;;;;;;6.63;2.63;;;16.50;99.90;;;;;;5092467;28;20059;-69
2023/08/04 05:17:41;;;;;;;4.50;2.43;;;16.50;99.90;;;;;;5093658;28;20043;-69
2023/08/04 05:20:08;;;;;;;6.70;2.90;;;16.50;99.90;;;;;;5093651;28;20040;-69
2023/08/04 05:22:33;;;;;;;9.00;2.90;;;16.60;99.90;;;;;;5093804;28;20051;-69
2023/08/04 05:24:59;;;;;;;8.43;2.47;;;16.60;99.90;;;;;;5093106;28;20480;-69
2023/08/04 05:27:25;;;;;;;10.73;3.10;;;16.60;99.90;;;;;;5093851;28;20040;-69
2023/08/04 05:29:50;;;;;;;5.93;2.33;;;16.60;99.90;;;;;;5093397;28;20440;-69
2023/08/04 05:32:16;;;;;;;7.67;2.50;;;16.70;99.90;;;;;;5092400;28;20065;-69
2023/08/04 05:34:42;;;;;;;5.73;2.30;;;16.70;99.90;;;;;;5093842;28;20079;-69
2023/08/04 05:37:08;;;;;;;6.80;2.50;;;16.80;99.90;;;;;;5092140;28;20048;-69
2023/08/04 05:39:33;;;;;;;5.23;2.40;;;16.80;99.90;;;;;;5093538;28;20086;-69
2023/08/04 05:41:59;;;;;;;6.03;2.43;;;16.90;99.90;;;;;;5093442;28;20392;-71
2023/08/04 05:44:25;;;;;;;5.93;2.27;;;16.90;99.90;;;;;;5093241;28;20135;-69
2023/08/04 05:46:50;;;;;;;6.07;2.27;;;16.90;99.90;;;;;;5093443;28;20051;-69
2023/08/04 05:49:17;;;;;;;6.90;2.23;;;17.00;99.90;;;;;;5093060;28;20488;-69
2023/08/04 05:51:44;;;;;;;5.07;2.03;;;17.00;99.90;;;;;;5093325;28;20127;-69
2023/08/04 05:54:10;;;;;;;5.20;1.80;;;17.00;99.90;;;;;;5093000;28;20497;-69
2023/08/04 05:56:35;;;;;;;24.77;5.30;;;17.00;99.90;;;;;;5093253;28;20135;-69
2023/08/04 05:59:01;;;;;;;6.10;2.50;;;17.10;99.90;;;;;;5091901;28;20088;-71
2023/08/04 06:01:27;;;;;;;7.13;2.83;;;17.10;99.90;;;;;;5092054;28;20051;-69
2023/08/04 06:03:53;;;;;;;4.87;2.13;;;17.00;99.90;;;;;;5093163;28;20476;-69
2023/08/04 06:06:19;;;;;;;7.37;2.67;;;17.10;99.90;;;;;;5092872;28;20055;-68
2023/08/04 06:08:45;;;;;;;61.17;8.87;;;17.10;99.90;;;;;;5091818;28;20397;-68
2023/08/04 06:11:12;;;;;;;8.03;2.43;;;17.20;99.90;;;;;;5092622;28;20102;-69
2023/08/04 06:13:38;;;;;;;6.43;2.77;;;17.20;99.90;;;;;;5093087;28;20059;-69
2023/08/04 06:16:04;;;;;;;6.80;2.30;;;17.30;99.90;;;;;;5092853;28;20388;-70
2023/08/04 06:18:29;;;;;;;28.37;4.97;;;17.30;99.90;;;;;;5093007;28;20044;-69
2023/08/04 06:20:55;;;;;;;49.60;5.87;;;17.40;99.90;;;;;;5093179;28;20079;-66
2023/08/04 06:23:21;;;;;;;69.30;10.67;;;17.40;99.90;;;;;;5092770;28;20048;-66
2023/08/04 06:25:46;;;;;;;21.57;3.70;;;17.50;99.90;;;;;;5093521;28;20086;-67
2023/08/04 06:28:12;;;;;;;6.13;2.70;;;17.60;99.90;;;;;;5092738;28;20047;-67
2023/08/04 06:30:38;;;;;;;56.90;7.57;;;17.70;99.90;;;;;;5094288;28;20093;-67
2023/08/04 06:33:03;;;;;;;14.40;4.07;;;17.90;99.90;;;;;;5096090;28;20146;-67
2023/08/04 06:35:29;;;;;;;6.87;2.10;;;18.10;99.90;;;;;;5096698;28;20051;-67
2023/08/04 06:37:55;;;;;;;3.57;1.60;;;18.20;99.90;;;;;;5096219;28;20082;-67
2023/08/04 06:40:20;;;;;;;5.87;1.90;;;18.30;99.90;;;;;;5096938;28;20044;-67
2023/08/04 06:42:46;;;;;;;7.37;2.40;;;18.40;99.90;;;;;;5097115;28;20079;-67
2023/08/04 06:45:12;;;;;;;7.97;2.57;;;18.40;99.90;;;;;;5096663;28;20051;-67
2023/08/04 06:47:38;;;;;;;6.20;2.20;;;18.60;99.90;;;;;;5096789;28;20048;-67
2023/08/04 06:50:04;;;;;;;4.07;1.73;;;18.70;99.90;;;;;;5096745;28;20058;-67
2023/08/04 06:52:30;;;;;;;5.70;2.20;;;18.80;99.90;;;;;;5096442;28;20042;-67
2023/08/04 06:54:56;;;;;;;6.60;2.27;;;19.20;99.90;;;;;;5095649;28;20052;-67
2023/08/04 06:57:22;;;;;;;5.27;2.20;;;19.60;99.90;;;;;;5096332;28;20043;-67
2023/08/04 06:59:48;;;;;;;4.30;2.20;;;19.80;99.90;;;;;;5096516;28;20067;-67
2023/08/04 07:02:14;;;;;;;6.63;1.90;;;20.50;99.90;;;;;;5096176;28;20048;-69
2023/08/04 07:04:39;;;;;;;6.27;2.00;;;21.80;99.90;;;;;;5096406;28;20040;-69
2023/08/04 07:07:05;;;;;;;10.03;2.13;;;22.40;99.90;;;;;;5096442;28;20040;-70
2023/08/04 07:09:31;;;;;;;6.07;2.27;;;22.20;99.90;;;;;;5095961;28;20400;-70
2023/08/04 07:11:56;;;;;;;7.23;2.47;;;21.80;99.90;;;;;;5095968;28;20060;-69
2023/08/04 07:14:22;;;;;;;5.70;1.97;;;21.40;99.90;;;;;;5094756;28;20048;-73
2023/08/04 07:16:48;;;;;;;4.03;1.87;;;21.00;99.90;;;;;;5095283;28;20048;-69
2023/08/04 07:19:15;;;;;;;5.00;1.47;;;20.60;99.90;;;;;;5094663;28;20040;-70
2023/08/04 07:21:41;;;;;;;9.37;2.50;;;20.30;99.90;;;;;;5096113;28;20048;-70
2023/08/04 07:24:08;;;;;;;5.50;1.50;;;20.10;99.90;;;;;;5096127;28;20138;-70
2023/08/04 07:26:34;;;;;;;10.70;2.97;;;19.80;99.90;;;;;;5095757;28;20036;-70
2023/08/04 07:29:00;;;;;;;7.47;1.67;;;19.70;99.90;;;;;;5096068;28;20044;-70
2023/08/04 07:31:26;;;;;;;7.40;2.33;;;19.50;99.90;;;;;;5095687;28;20102;-69
2023/08/04 07:33:52;;;;;;;5.30;2.00;;;19.40;99.90;;;;;;5095872;28;20126;-68
2023/08/04 07:36:17;;;;;;;7.77;2.13;;;19.20;99.90;;;;;;5095585;28;20047;-68
2023/08/04 07:38:43;;;;;;;8.20;2.10;;;19.10;99.90;;;;;;5094555;28;20544;-68
2023/08/04 07:41:16;;;;;;;5.73;2.13;;;19.00;99.90;;;;;;5094216;28;20044;-67
2023/08/04 07:43:41;;;;;;;7.33;1.87;;;19.00;99.90;;;;;;5095728;28;20052;-69
2023/08/04 07:46:25;;;;;;;7.60;2.53;;;18.90;99.90;;;;;;5095870;28;20104;-68
2023/08/04 07:48:51;;;;;;;5.70;1.93;;;19.00;99.90;;;;;;5094771;28;20048;-69
2023/08/04 07:51:17;;;;;;;4.17;1.60;;;19.10;99.90;;;;;;5095450;28;20051;-70
2023/08/04 07:53:43;;;;;;;5.97;1.77;;;19.10;99.90;;;;;;5095471;28;20399;-68
2023/08/04 07:56:09;;;;;;;6.27;1.80;;;19.30;99.90;;;;;;5094366;28;20101;-70
2023/08/04 07:58:35;;;;;;;8.27;2.17;;;19.40;99.90;;;;;;5094720;28;20557;-67
2023/08/04 08:01:03;;;;;;;6.47;2.70;;;20.00;99.90;;;;;;5093640;28;20040;-67
2023/08/04 08:03:30;;;;;;;4.87;1.73;;;21.20;99.90;;;;;;5094577;28;20058;-67
2023/08/04 08:05:56;;;;;;;6.00;1.73;;;22.10;99.90;;;;;;5092552;28;20046;-67
2023/08/04 08:08:22;;;;;;;6.10;2.03;;;22.60;99.90;;;;;;5094837;28;20407;-66
2023/08/04 08:10:48;;;;;;;4.87;1.63;;;22.90;99.90;;;;;;5095203;28;20456;-71
2023/08/04 08:13:13;;;;;;;7.87;2.50;;;23.30;99.90;;;;;;5095229;28;20586;-70
2023/08/04 08:15:39;;;;;;;7.10;2.13;;;23.50;99.90;;;;;;5094832;28;20051;-70
2023/08/04 08:18:05;;;;;;;5.17;1.67;;;23.60;99.90;;;;;;5095154;28;20044;-69
2023/08/04 08:20:31;;;;;;;6.67;1.70;;;23.70;99.90;;;;;;5094741;28;20048;-70
2023/08/04 08:22:56;;;;;;;6.37;1.73;;;23.60;99.90;;;;;;5094932;28;20047;-70
2023/08/04 08:25:22;;;;;;;4.47;1.30;;;23.30;99.90;;;;;;5093332;28;20048;-69
2023/08/04 08:27:48;;;;;;;5.90;1.80;;;22.90;99.90;;;;;;5094824;28;20055;-69
2023/08/04 08:30:14;;;;;;;4.60;1.97;;;22.60;99.90;;;;;;5094811;28;20040;-69
2023/08/04 08:32:39;;;;;;;4.33;1.30;;;22.50;99.90;;;;;;5094497;28;20097;-72
2023/08/04 08:35:06;;;;;;;8.53;2.57;;;22.40;99.90;;;;;;5094745;28;20044;-69
2023/08/04 08:37:31;;;;;;;5.60;1.50;;;22.30;99.90;;;;;;5094382;28;20040;-68
2023/08/04 08:39:57;;;;;;;4.80;1.53;;;22.30;99.90;;;;;;5094839;28;20096;-69
2023/08/04 08:42:23;;;;;;;5.87;1.57;;;22.40;99.90;;;;;;5094286;28;20480;-69
2023/08/04 08:44:49;;;;;;;5.90;1.83;;;22.30;99.90;;;;;;5093290;28;20127;-69
2023/08/04 08:47:19;;;;;;;5.63;1.60;;;22.30;99.90;;;;;;5094164;28;20040;-66
2023/08/04 08:49:47;;;;;;;5.33;1.50;;;22.30;99.90;;;;;;5094204;28;20036;-68
2023/08/04 08:52:13;;;;;;;4.30;1.60;;;22.10;99.90;;;;;;5093686;28;20084;-68
2023/08/04 08:54:40;;;;;;;4.93;1.70;;;22.10;99.90;;;;;;5094021;28;20056;-68
2023/08/04 08:57:06;;;;;;;3.77;1.50;;;22.00;99.90;;;;;;5094281;28;20143;-68
2023/08/04 08:59:32;;;;;;;4.93;1.50;;;22.00;99.90;;;;;;5093979;28;20087;-69
2023/08/04 09:02:02;;;;;;;4.67;1.77;;;22.10;99.90;;;;;;5094345;28;20126;-69
2023/08/04 09:04:33;;;;;;;5.53;1.50;;;22.10;99.90;;;;;;5093835;28;20044;-67
2023/08/04 09:06:59;;;;;;;3.67;1.50;;;22.10;99.90;;;;;;5094151;28;20056;-67
2023/08/04 09:09:25;;;;;;;5.37;1.20;;;22.00;99.90;;;;;;5093676;28;20044;-70
2023/08/04 09:11:52;;;;;;;5.33;1.70;;;22.10;99.90;;;;;;5093652;28;20062;-69
2023/08/04 09:14:17;;;;;;;10.23;1.50;;;22.10;99.90;;;;;;5093927;28;20087;-69
2023/08/04 09:16:43;;;;;;;5.80;1.40;;;22.10;99.90;;;;;;5093606;28;20079;-73
2023/08/04 09:19:09;;;;;;;6.27;2.37;;;22.20;99.90;;;;;;5093577;28;20575;-73
2023/08/04 09:21:36;;;;;;;10.50;2.07;;;22.20;99.90;;;;;;5093580;28;20040;-75
2023/08/04 09:24:09;;;;;;;6.53;1.97;;;22.30;99.90;;;;;;5093923;28;20040;-73
2023/08/04 09:26:44;;;;;;;6.67;1.90;;;22.30;99.90;;;;;;5093574;28;20076;-74
2023/08/04 09:29:11;;;;;;;8.17;2.23;;;22.30;99.90;;;;;;5092551;28;20051;-74
2023/08/04 09:31:48;;;;;;;7.10;2.17;;;22.30;99.90;;;;;;5093454;28;20048;-71
2023/08/04 09:34:13;;;;;;;7.43;2.23;;;22.30;99.90;;;;;;5093808;28;20043;-74
2023/08/04 09:36:47;;;;;;;8.07;2.50;;;22.20;99.90;;;;;;5093282;28;20051;-72
2023/08/04 09:39:14;;;;;;;9.43;2.35;;;22.20;99.90;;;;;;5093516;28;20082;-72
2023/08/04 09:41:46;;;;;;;8.13;2.57;;;22.20;99.90;;;;;;5075473;28;20050;-70
2023/08/04 09:44:11;;;;;;;7.27;2.33;;;22.30;99.90;;;;;;5093134;28;20511;-68
2023/08/04 09:46:54;;;;;;;8.37;2.33;;;22.10;99.90;;;;;;5093256;28;20040;-69
2023/08/04 09:49:20;;;;;;;6.67;2.47;;;22.00;99.90;;;;;;5093489;28;20040;-69
2023/08/04 09:51:49;;;;;;;8.60;2.10;;;21.80;99.90;;;;;;5093156;28;20055;-67
2023/08/04 09:54:15;;;;;;;7.67;2.33;;;21.70;99.90;;;;;;5093402;28;20044;-70
2023/08/04 09:56:41;;;;;;;6.30;2.17;;;21.50;99.90;;;;;;5091845;28;20387;-72
2023/08/04 09:59:08;;;;;;;6.43;2.03;;;21.40;99.90;;;;;;5093236;28;20176;-71
2023/08/04 10:01:34;;;;;;;6.00;2.00;;;21.30;99.90;;;;;;5092939;28;20499;-67
2023/08/04 10:04:00;;;;;;;5.30;1.90;;;21.30;99.90;;;;;;5092325;28;20056;-70
2023/08/04 10:06:26;;;;;;;8.27;2.20;;;21.20;99.90;;;;;;5093164;28;20052;-70
2023/08/04 10:08:54;;;;;;;6.93;2.00;;;21.20;99.90;;;;;;5091641;28;20070;-70
2023/08/04 10:11:21;;;;;;;8.43;2.10;;;21.20;99.90;;;;;;5093165;28;20492;-70
2023/08/04 10:13:51;;;;;;;6.73;1.67;;;21.10;99.90;;;;;;5092916;28;20400;-71
2023/08/04 10:16:19;;;;;;;5.53;1.87;;;21.10;99.90;;;;;;5093153;28;20047;-70
2023/08/04 10:18:56;;;;;;;9.23;2.10;;;21.10;99.90;;;;;;5091835;28;20051;-71
2023/08/04 10:21:26;;;;;;;6.77;2.03;;;21.20;99.90;;;;;;5093074;28;20075;-71
2023/08/04 10:23:55;;;;;;;5.87;2.10;;;21.20;99.90;;;;;;5092755;28;20048;-70
2023/08/04 10:26:21;;;;;;;5.13;2.00;;;21.20;99.90;;;;;;5092961;28;20052;-70
2023/08/04 10:29:09;;;;;;;8.30;2.27;;;21.30;99.90;;;;;;5092307;28;20502;-71
2023/08/04 10:31:52;;;;;;;8.00;2.00;;;21.40;99.90;;;;;;5092905;28;20051;-68
2023/08/04 10:34:25;;;;;;;6.57;1.97;;;21.40;99.90;;;;;;5092964;28;20040;-67
2023/08/04 10:37:09;;;;;;;6.70;1.60;;;21.30;99.90;;;;;;5092631;28;20101;-68
2023/08/04 10:39:37;;;;;;;6.37;1.93;;;21.20;99.90;;;;;;5092779;28;20047;-73
2023/08/04 10:42:14;;;;;;;7.10;1.70;;;21.20;99.90;;;;;;5092877;28;20139;-71
2023/08/04 10:44:56;;;;;;;5.07;1.70;;;21.30;99.90;;;;;;5092641;28;20052;-71
2023/08/04 10:47:35;;;;;;;4.27;1.60;;;21.20;99.90;;;;;;5092802;28;20048;-71
2023/08/04 10:50:03;;;;;;;6.97;1.77;;;21.20;99.90;;;;;;5092710;28;20055;-71
2023/08/04 10:52:32;;;;;;;4.53;1.50;;;21.10;99.90;;;;;;5092726;28;20048;-71
2023/08/04 10:54:58;;;;;;;4.87;1.60;;;21.10;99.90;;;;;;5092452;28;20400;-71
2023/08/04 10:57:30;;;;;;;7.37;1.90;;;21.00;99.90;;;;;;5092740;28;20093;-70
2023/08/04 10:59:56;;;;;;;6.70;2.00;;;21.10;99.90;;;;;;5092424;28;20105;-71
2023/08/04 11:02:24;;;;;;;7.13;1.83;;;21.20;99.90;;;;;;5091766;28;20052;-71
2023/08/04 11:04:51;;;;;;;6.77;1.73;;;21.20;99.90;;;;;;5092369;28;20135;-70
2023/08/04 11:07:18;;;;;;;7.50;1.97;;;21.30;99.90;;;;;;5092602;28;20050;-69
2023/08/04 11:09:47;;;;;;;7.37;1.63;;;21.30;99.90;;;;;;5092345;28;20051;-70
2023/08/04 11:12:14;;;;;;;6.17;1.80;;;21.40;99.90;;;;;;5092421;28;20052;-68
2023/08/04 11:14:40;;;;;;;5.67;2.10;;;21.40;99.90;;;;;;5092220;28;20044;-72
2023/08/04 11:17:17;;;;;;;6.37;1.40;;;21.40;99.90;;;;;;5094625;28;20051;-70
2023/08/04 11:19:45;;;;;;;4.47;1.47;;;21.40;99.90;;;;;;5095977;28;20100;-72
2023/08/04 11:22:30;;;;;;;7.93;1.87;;;21.40;99.90;;;;;;5094821;28;20059;-70
2023/08/04 11:24:56;;;;;;;4.47;1.20;;;21.50;99.90;;;;;;5076275;28;20059;-71
2023/08/04 11:27:22;;;;;;;3.10;1.23;;;21.50;99.90;;;;;;5094847;28;20048;-71
2023/08/04 11:29:54;;;;;;;5.07;1.60;;;21.50;99.90;;;;;;5095451;28;20100;-71
2023/08/04 11:32:22;;;;;;;3.10;1.37;;;21.60;99.90;;;;;;5095995;28;20047;-70
2023/08/04 11:34:48;;;;;;;4.03;1.50;;;21.60;99.90;;;;;;5095678;28;20090;-70
2023/08/04 11:37:15;;;;;;;5.07;1.70;;;21.70;99.90;;;;;;5095860;28;20051;-70
2023/08/04 11:39:42;;;;;;;6.53;1.90;;;21.90;99.90;;;;;;5095795;28;20044;-71
2023/08/04 11:42:12;;;;;;;5.93;1.70;;;22.00;99.90;;;;;;5096296;28;20051;-70
2023/08/04 11:44:47;;;;;;;5.80;1.50;;;22.00;99.90;;;;;;5095432;28;20465;-70
2023/08/04 11:47:13;;;;;;;;;;;21.90;99.90;;;;;;5096385;28;20127;-71
2023/08/04 11:49:40;;;;;;;6.50;1.97;;;21.80;99.90;;;;;;5095544;28;19931;-71
2023/08/04 11:52:09;;;;;;;5.03;1.40;;;21.70;99.90;;;;;;5095282;28;20040;-71
2023/08/04 11:54:36;;;;;;;4.50;1.37;;;21.60;99.90;;;;;;5094346;28;20365;-70
2023/08/04 11:57:02;;;;;;;5.43;1.53;;;21.60;99.90;;;;;;5095185;28;20048;-70
2023/08/04 11:59:27;;;;;;;5.33;1.57;;;21.60;99.90;;;;;;5095685;28;20040;-71
2023/08/04 12:02:06;;;;;;;6.43;1.70;;;21.60;99.90;;;;;;5095166;28;20051;-71
2023/08/04 12:04:32;;;;;;;6.27;1.70;;;21.70;99.90;;;;;;5094332;28;20086;-70
2023/08/04 12:07:03;;;;;;;7.70;1.87;;;21.70;99.90;;;;;;5095033;28;20083;-72
2023/08/04 12:09:29;;;;;;;8.67;2.30;;;21.90;99.90;;;;;;5095128;28;20036;-72
2023/08/04 12:11:55;;;;;;;5.37;1.60;;;22.00;99.90;;;;;;5094816;28;20052;-72
2023/08/04 12:14:22;;;;;;;5.40;1.50;;;22.00;99.90;;;;;;5095173;28;20403;-71
2023/08/04 12:16:55;;;;;;;8.10;1.93;;;22.10;99.90;;;;;;5094857;28;20083;-72
2023/08/04 12:19:25;;;;;;;3.83;1.40;;;22.10;99.90;;;;;;5095017;28;20097;-72
2023/08/04 12:21:52;;;;;;;4.90;1.70;;;22.20;99.90;;;;;;5093469;28;20131;-71
2023/08/04 12:24:19;;;;;;;9.90;2.60;;;22.20;99.90;;;;;;5094920;28;20123;-72
2023/08/04 12:26:45;;;;;;;8.50;2.20;;;22.10;99.90;;;;;;5094229;28;20161;-72
2023/08/04 12:29:11;;;;;;;8.17;2.33;;;22.10;99.90;;;;;;5093037;28;20044;-72
2023/08/04 12:31:38;;;;;;;9.87;2.27;;;22.00;99.90;;;;;;5094854;28;20123;-71
2023/08/04 12:34:05;;;;;;;9.47;2.17;;;22.00;99.90;;;;;;5094408;28;20126;-72
2023/08/04 12:36:30;;;;;;;8.53;2.93;;;21.90;99.90;;;;;;5094686;28;20104;-72
2023/08/04 12:38:56;;;;;;;6.03;2.17;;;22.00;99.90;;;;;;5094465;28;20480;-71
2023/08/04 12:41:22;;;;;;;8.73;2.10;;;22.00;99.90;;;;;;5094583;28;20040;-70
2023/08/04 12:43:48;;;;;;;11.33;2.70;;;22.00;99.90;;;;;;5094599;28;20044;-70
2023/08/04 12:46:14;;;;;;;8.17;2.10;;;22.00;99.90;;;;;;5093260;28;20066;-69